createdAt,value
2022-11-14T00:00:36.738Z,100.00
2022-11-14T00:03:05.568Z,100.00
2022-11-14T00:05:32.937Z,100.00
2022-11-14T00:07:59.822Z,100.00
2022-11-14T00:10:26.437Z,100.00
2022-11-14T00:12:52.986Z,100.00
2022-11-14T00:15:19.929Z,100.00
2022-11-14T00:17:46.616Z,100.00
2022-11-14T00:20:13.358Z,100.00
2022-11-14T00:22:40.294Z,100.00
2022-11-14T00:25:07.495Z,100.00
2022-11-14T00:27:34.068Z,100.00
2022-11-14T00:30:00.635Z,100.00
2022-11-14T00:32:27.423Z,100.00
2022-11-14T00:34:53.994Z,100.00
2022-11-14T00:37:20.652Z,100.00
2022-11-14T00:39:47.363Z,100.00
2022-11-14T00:42:14.010Z,100.00
2022-11-14T00:44:41.138Z,100.00
2022-11-14T00:47:07.853Z,100.00
2022-11-14T00:49:34.598Z,100.00
2022-11-14T00:52:01.075Z,100.00
2022-11-14T00:54:27.850Z,100.00
2022-11-14T00:56:54.557Z,100.00
2022-11-14T00:59:21.104Z,100.00
2022-11-14T01:01:47.669Z,100.00
2022-11-14T01:04:14.284Z,100.00
2022-11-14T01:06:40.843Z,100.00
2022-11-14T01:09:07.443Z,100.00
2022-11-14T01:11:34.135Z,100.00
2022-11-14T01:14:00.684Z,100.00
2022-11-14T01:16:27.228Z,100.00
2022-11-14T01:18:53.866Z,100.00
2022-11-14T01:21:20.567Z,100.00
2022-11-14T01:23:47.140Z,100.00
2022-11-14T01:26:14.530Z,100.00
2022-11-14T01:28:41.464Z,100.00
2022-11-14T01:31:14.024Z,100.00
2022-11-14T01:33:41.035Z,100.00
2022-11-14T01:36:08.973Z,100.00
2022-11-14T01:38:36.579Z,100.00
2022-11-14T01:41:04.240Z,100.00
2022-11-14T01:43:30.760Z,100.00
2022-11-14T01:45:59.361Z,100.00
2022-11-14T01:48:31.984Z,100.00
2022-11-14T01:51:05.319Z,100.00
2022-11-14T01:53:32.612Z,100.00
2022-11-14T01:56:03.303Z,100.00
2022-11-14T01:58:31.998Z,100.00
2022-11-14T02:00:59.584Z,100.00
2022-11-14T02:03:26.630Z,100.00
2022-11-14T02:05:54.537Z,100.00
2022-11-14T02:08:21.862Z,100.00
2022-11-14T02:10:48.397Z,100.00
2022-11-14T02:13:15.263Z,100.00
2022-11-14T02:15:42.164Z,100.00
2022-11-14T02:18:08.708Z,100.00
2022-11-14T02:20:43.253Z,100.00
2022-11-14T02:23:11.594Z,100.00
2022-11-14T02:25:40.149Z,100.00
2022-11-14T02:28:09.565Z,100.00
2022-11-14T02:30:36.383Z,100.00
2022-11-14T02:33:11.333Z,100.00
2022-11-14T02:35:38.290Z,100.00
2022-11-14T02:38:04.848Z,100.00
2022-11-14T02:40:31.497Z,100.00
2022-11-14T02:42:58.257Z,100.00
2022-11-14T02:45:25.347Z,100.00
2022-11-14T02:47:52.198Z,100.00
2022-11-14T02:50:18.830Z,100.00
2022-11-14T02:52:45.490Z,100.00
2022-11-14T02:55:12.920Z,100.00
2022-11-14T02:57:39.498Z,100.00
2022-11-14T03:00:10.101Z,100.00
2022-11-14T03:02:40.038Z,100.00
2022-11-14T03:05:07.060Z,100.00
2022-11-14T03:07:33.662Z,100.00
2022-11-14T03:10:00.355Z,100.00
2022-11-14T03:12:26.957Z,100.00
2022-11-14T03:14:53.724Z,100.00
2022-11-14T03:17:20.273Z,100.00
2022-11-14T03:19:47.000Z,100.00
2022-11-14T03:22:13.797Z,100.00
2022-11-14T03:24:40.441Z,100.00
2022-11-14T03:27:07.018Z,100.00
2022-11-14T03:29:33.565Z,100.00
2022-11-14T03:32:00.107Z,100.00
2022-11-14T03:34:26.625Z,100.00
2022-11-14T03:36:54.247Z,100.00
2022-11-14T03:39:21.459Z,100.00
2022-11-14T03:41:48.014Z,100.00
2022-11-14T03:44:14.674Z,100.00
2022-11-14T03:46:41.266Z,100.00
2022-11-14T03:49:08.066Z,100.00
2022-11-14T03:51:38.902Z,100.00
2022-11-14T03:54:05.586Z,100.00
2022-11-14T03:56:32.196Z,100.00
2022-11-14T03:58:58.770Z,100.00
2022-11-14T04:01:25.430Z,100.00
2022-11-14T04:03:52.034Z,100.00
2022-11-14T04:06:18.582Z,100.00
2022-11-14T04:08:45.309Z,100.00
2022-11-14T04:11:11.951Z,100.00
2022-11-14T04:13:38.542Z,100.00
2022-11-14T04:16:05.607Z,100.00
2022-11-14T04:18:32.419Z,100.00
2022-11-14T04:20:59.210Z,100.00
2022-11-14T04:23:25.931Z,100.00
2022-11-14T04:25:52.473Z,100.00
2022-11-14T04:28:19.116Z,100.00
2022-11-14T04:30:45.698Z,100.00
2022-11-14T04:33:12.329Z,100.00
2022-11-14T04:35:39.238Z,100.00
2022-11-14T04:38:05.917Z,100.00
2022-11-14T04:40:32.895Z,100.00
2022-11-14T04:42:59.446Z,100.00
2022-11-14T04:45:26.078Z,100.00
2022-11-14T04:47:52.939Z,100.00
2022-11-14T04:50:19.777Z,100.00
2022-11-14T04:52:46.493Z,100.00
2022-11-14T04:55:13.064Z,100.00
2022-11-14T04:57:39.578Z,100.00
2022-11-14T05:00:07.083Z,100.00
2022-11-14T05:02:33.622Z,100.00
2022-11-14T05:05:00.221Z,100.00
2022-11-14T05:07:27.960Z,100.00
2022-11-14T05:09:54.529Z,100.00
2022-11-14T05:12:21.162Z,100.00
2022-11-14T05:14:47.890Z,100.00
2022-11-14T05:17:15.182Z,100.00
2022-11-14T05:19:41.856Z,100.00
2022-11-14T05:22:08.384Z,100.00
2022-11-14T05:24:35.111Z,100.00
2022-11-14T05:27:01.771Z,100.00
2022-11-14T05:29:28.482Z,100.00
2022-11-14T05:31:55.062Z,100.00
2022-11-14T05:34:21.646Z,100.00
2022-11-14T05:36:48.346Z,100.00
2022-11-14T05:39:16.254Z,100.00
2022-11-14T05:41:42.912Z,100.00
2022-11-14T05:44:11.577Z,100.00
2022-11-14T05:46:38.227Z,100.00
2022-11-14T05:49:04.786Z,100.00
2022-11-14T05:51:31.365Z,100.00
2022-11-14T05:53:58.004Z,100.00
2022-11-14T05:56:24.550Z,100.00
2022-11-14T05:58:51.188Z,100.00
2022-11-14T06:01:19.403Z,100.00
2022-11-14T06:03:47.829Z,100.00
2022-11-14T06:06:19.894Z,100.00
2022-11-14T06:08:47.045Z,100.00
2022-11-14T06:11:17.679Z,100.00
2022-11-14T06:13:44.733Z,100.00
2022-11-14T06:16:13.986Z,100.00
2022-11-14T06:18:41.334Z,100.00
2022-11-14T06:21:11.620Z,100.00
2022-11-14T06:23:38.242Z,100.00
2022-11-14T06:26:08.063Z,100.00
2022-11-14T06:28:34.815Z,100.00
2022-11-14T06:31:04.609Z,100.00
2022-11-14T06:33:35.931Z,100.00
2022-11-14T06:36:06.124Z,100.00
2022-11-14T06:38:34.534Z,100.00
2022-11-14T06:41:16.063Z,100.00
2022-11-14T06:43:47.765Z,100.00
2022-11-14T06:46:17.546Z,100.00
2022-11-14T06:48:45.526Z,100.00
2022-11-14T06:51:14.072Z,100.00
2022-11-14T06:53:41.116Z,100.00
2022-11-14T06:56:11.144Z,100.00
2022-11-14T06:58:42.114Z,100.00
2022-11-14T07:01:13.565Z,100.00
2022-11-14T07:03:41.240Z,100.00
2022-11-14T07:06:09.708Z,100.00
2022-11-14T07:08:36.469Z,100.00
2022-11-14T07:11:33.190Z,100.00
2022-11-14T07:14:01.457Z,100.00
2022-11-14T07:16:34.948Z,100.00
2022-11-14T07:19:04.018Z,100.00
2022-11-14T07:21:31.703Z,100.00
2022-11-14T07:23:58.533Z,100.00
2022-11-14T07:26:25.493Z,100.00
2022-11-14T07:28:55.476Z,100.00
2022-11-14T07:31:24.749Z,100.00
2022-11-14T07:33:51.376Z,100.00
2022-11-14T07:36:19.214Z,100.00
2022-11-14T07:38:46.046Z,100.00
2022-11-14T07:41:15.143Z,100.00
2022-11-14T07:43:42.672Z,100.00
2022-11-14T07:46:15.026Z,100.00
2022-11-14T07:48:42.122Z,100.00
2022-11-14T07:51:15.431Z,100.00
2022-11-14T07:53:42.399Z,100.00
2022-11-14T07:56:10.027Z,100.00
2022-11-14T07:58:41.239Z,100.00
2022-11-14T08:01:10.409Z,100.00
2022-11-14T08:03:40.895Z,100.00
2022-11-14T08:06:12.805Z,100.00
2022-11-14T08:08:39.410Z,100.00
2022-11-14T08:11:06.188Z,100.00
2022-11-14T08:13:34.007Z,100.00
2022-11-14T08:16:12.752Z,100.00
2022-11-14T08:18:40.418Z,100.00
2022-11-14T08:21:07.333Z,100.00
2022-11-14T08:23:33.977Z,100.00
2022-11-14T08:26:00.612Z,100.00
2022-11-14T08:28:27.846Z,100.00
2022-11-14T08:31:02.790Z,100.00
2022-11-14T08:33:30.353Z,100.00
2022-11-14T08:36:01.141Z,100.00
2022-11-14T08:38:27.955Z,100.00
2022-11-14T08:40:58.968Z,100.00
2022-11-14T08:43:25.717Z,100.00
2022-11-14T08:45:52.336Z,100.00
2022-11-14T08:48:19.069Z,100.00
2022-11-14T08:50:45.670Z,100.00
2022-11-14T08:53:12.179Z,100.00
2022-11-14T08:55:44.361Z,100.00
2022-11-14T08:58:11.012Z,100.00
2022-11-14T09:00:37.735Z,100.00
2022-11-14T09:03:08.609Z,100.00
2022-11-14T09:05:36.204Z,100.00
2022-11-14T09:08:03.694Z,100.00
2022-11-14T09:10:30.422Z,100.00
2022-11-14T09:13:01.305Z,100.00
2022-11-14T09:15:28.948Z,100.00
2022-11-14T09:17:56.766Z,100.00
2022-11-14T09:20:32.377Z,100.00
2022-11-14T09:23:02.135Z,100.00
2022-11-14T09:25:30.195Z,100.00
2022-11-14T09:27:57.197Z,100.00
2022-11-14T09:30:24.023Z,100.00
2022-11-14T09:32:51.096Z,100.00
2022-11-14T09:35:18.034Z,100.00
2022-11-14T09:37:44.710Z,100.00
2022-11-14T09:40:13.679Z,100.00
2022-11-14T09:43:10.951Z,100.00
2022-11-14T09:45:43.177Z,100.00
2022-11-14T09:48:16.388Z,100.00
2022-11-14T09:50:52.166Z,100.00
2022-11-14T09:53:31.436Z,100.00
2022-11-14T09:55:59.071Z,100.00
2022-11-14T09:58:26.830Z,100.00
2022-11-14T10:01:09.919Z,100.00
2022-11-14T10:03:53.288Z,100.00
2022-11-14T10:07:22.269Z,100.00
2022-11-14T10:09:54.101Z,100.00
2022-11-14T10:12:26.652Z,100.00
2022-11-14T10:15:16.572Z,100.00
2022-11-14T10:18:17.373Z,100.00
2022-11-14T10:20:56.774Z,100.00
2022-11-14T10:23:58.291Z,100.00
2022-11-14T10:26:32.458Z,100.00
2022-11-14T10:29:23.901Z,100.00
2022-11-14T10:31:58.139Z,100.00
2022-11-14T10:34:48.342Z,100.00
2022-11-14T10:37:57.145Z,100.00
2022-11-14T10:40:34.543Z,100.00
2022-11-14T10:43:20.658Z,100.00
2022-11-14T10:46:05.588Z,100.00
2022-11-14T10:48:43.024Z,100.00
2022-11-14T10:51:33.219Z,100.00
2022-11-14T10:54:06.878Z,100.00
2022-11-14T10:56:33.744Z,100.00
2022-11-14T10:59:00.489Z,100.00
2022-11-14T11:01:40.393Z,100.00
2022-11-14T11:04:27.324Z,100.00
2022-11-14T11:06:57.367Z,100.00
2022-11-14T11:09:47.383Z,100.00
2022-11-14T11:12:43.768Z,100.00
2022-11-14T11:15:20.580Z,100.00
2022-11-14T11:17:56.891Z,100.00
2022-11-14T11:20:28.610Z,100.00
2022-11-14T11:23:11.615Z,100.00
2022-11-14T11:25:40.380Z,100.00
2022-11-14T11:28:21.594Z,100.00
2022-11-14T11:31:01.405Z,100.00
2022-11-14T11:33:38.921Z,100.00
2022-11-14T11:36:23.249Z,100.00
2022-11-14T11:38:50.934Z,100.00
2022-11-14T11:44:19.963Z,100.00
2022-11-14T11:46:57.828Z,100.00
2022-11-14T11:49:30.417Z,100.00
2022-11-14T11:52:05.063Z,100.00
2022-11-14T11:54:46.407Z,100.00
2022-11-14T11:57:21.782Z,100.00
2022-11-14T11:59:55.064Z,100.00
2022-11-14T12:02:25.143Z,100.00
2022-11-14T12:04:54.816Z,100.00
2022-11-14T12:07:37.806Z,100.00
2022-11-14T12:10:14.547Z,100.00
2022-11-14T12:12:44.190Z,100.00
2022-11-14T12:15:40.426Z,100.00
2022-11-14T12:18:44.631Z,100.00
2022-11-14T12:21:25.707Z,100.00
2022-11-14T12:23:58.109Z,100.00
2022-11-14T12:27:02.247Z,100.00
2022-11-14T12:29:34.724Z,100.00
2022-11-14T12:32:08.447Z,100.00
2022-11-14T12:34:39.419Z,100.00
2022-11-14T12:37:16.057Z,100.00
2022-11-14T12:39:43.348Z,100.00
2022-11-14T12:42:15.927Z,100.00
2022-11-14T12:44:42.615Z,100.00
2022-11-14T12:47:09.217Z,100.00
2022-11-14T12:49:48.060Z,99.62
2022-11-14T12:52:54.007Z,98.36
2022-11-14T12:55:26.611Z,97.93
2022-11-14T12:58:17.891Z,98.17
2022-11-14T13:00:44.384Z,99.03
2022-11-14T13:03:22.252Z,97.63
2022-11-14T13:06:06.429Z,97.01
2022-11-14T13:08:48.249Z,97.59
2022-11-14T13:11:53.885Z,98.41
2022-11-14T13:14:39.769Z,98.72
2022-11-14T13:17:35.161Z,98.51
2022-11-14T13:20:41.345Z,99.78
2022-11-14T13:23:26.360Z,98.88
2022-11-14T13:26:11.139Z,99.31
2022-11-14T13:28:37.837Z,99.88
2022-11-14T13:31:17.198Z,99.03
2022-11-14T13:33:45.374Z,100.00
2022-11-14T13:36:43.557Z,99.96
2022-11-14T13:39:10.102Z,100.00
2022-11-14T13:41:47.131Z,100.00
2022-11-14T13:44:48.419Z,100.00
2022-11-14T13:47:28.403Z,100.00
2022-11-14T13:50:04.033Z,100.00
2022-11-14T13:52:40.108Z,100.00
2022-11-14T13:55:07.164Z,100.00
2022-11-14T13:58:02.773Z,100.00
2022-11-14T14:00:46.240Z,100.00
2022-11-14T14:03:52.235Z,100.00
2022-11-14T14:06:35.809Z,100.00
2022-11-14T14:09:39.900Z,100.00
2022-11-14T14:12:21.383Z,100.00
2022-11-14T14:15:27.282Z,100.00
2022-11-14T14:18:09.233Z,100.00
2022-11-14T14:20:53.298Z,100.00
2022-11-14T14:23:40.040Z,100.00
2022-11-14T14:26:34.791Z,100.00
2022-11-14T14:29:32.456Z,100.00
2022-11-14T14:32:16.723Z,100.00
2022-11-14T14:34:44.482Z,100.00
2022-11-14T14:37:25.854Z,100.00
2022-11-14T14:39:57.952Z,100.00
2022-11-14T14:42:26.124Z,100.00
2022-11-14T14:44:56.484Z,100.00
2022-11-14T14:47:33.154Z,100.00
2022-11-14T14:50:06.980Z,100.00
2022-11-14T14:52:37.041Z,100.00
2022-11-14T14:55:06.765Z,100.00
2022-11-14T14:57:33.428Z,100.00
2022-11-14T15:00:26.263Z,100.00
2022-11-14T15:02:57.024Z,100.00
2022-11-14T15:05:26.109Z,100.00
2022-11-14T15:07:57.527Z,100.00
2022-11-14T15:10:29.650Z,100.00
2022-11-14T15:12:58.102Z,100.00
2022-11-14T15:15:26.756Z,100.00
2022-11-14T15:17:56.003Z,100.00
2022-11-14T15:20:28.553Z,100.00
2022-11-14T15:23:11.084Z,100.00
2022-11-14T15:25:38.173Z,100.00
2022-11-14T15:28:17.788Z,100.00
2022-11-14T15:31:00.868Z,100.00
2022-11-14T15:33:33.135Z,100.00
2022-11-14T15:36:09.302Z,100.00
2022-11-14T15:38:44.015Z,100.00
2022-11-14T15:41:23.299Z,100.00
2022-11-14T15:43:55.304Z,100.00
2022-11-14T15:46:34.241Z,100.00
2022-11-14T15:49:07.113Z,100.00
2022-11-14T15:51:43.330Z,100.00
2022-11-14T15:54:23.782Z,100.00
2022-11-14T15:56:50.934Z,100.00
2022-11-14T15:59:17.728Z,100.00
2022-11-14T16:01:47.550Z,100.00
2022-11-14T16:04:28.476Z,100.00
2022-11-14T16:06:55.098Z,100.00
2022-11-14T16:09:21.803Z,100.00
2022-11-14T16:11:49.130Z,100.00
2022-11-14T16:14:16.032Z,100.00
2022-11-14T16:16:42.758Z,100.00
2022-11-14T16:19:14.034Z,100.00
2022-11-14T16:21:41.470Z,100.00
2022-11-14T16:24:16.520Z,100.00
2022-11-14T16:26:43.218Z,100.00
2022-11-14T16:29:09.949Z,100.00
2022-11-14T16:31:37.322Z,100.00
2022-11-14T16:34:04.596Z,100.00
2022-11-14T16:36:32.975Z,100.00
2022-11-14T16:39:02.487Z,100.00
2022-11-14T16:41:29.417Z,100.00
2022-11-14T16:43:57.283Z,100.00
2022-11-14T16:46:24.389Z,100.00
2022-11-14T16:48:51.583Z,100.00
2022-11-14T16:51:46.136Z,100.00
2022-11-14T16:54:04.782Z,100.00
2022-11-14T16:56:31.749Z,100.00
2022-11-14T16:58:58.412Z,100.00
2022-11-14T17:01:25.333Z,100.00
2022-11-14T17:03:52.579Z,100.00
2022-11-14T17:06:19.387Z,100.00
2022-11-14T17:08:45.999Z,100.00
2022-11-14T17:11:12.560Z,100.00
2022-11-14T17:13:39.429Z,100.00
2022-11-14T17:16:06.831Z,100.00
2022-11-14T17:18:38.568Z,100.00
2022-11-14T17:21:11.504Z,100.00
2022-11-14T17:23:38.226Z,100.00
2022-11-14T17:26:06.566Z,100.00
2022-11-14T17:28:38.452Z,100.00
2022-11-14T17:31:08.964Z,100.00
2022-11-14T17:33:36.831Z,100.00
2022-11-14T17:36:08.728Z,100.00
2022-11-14T17:38:37.009Z,100.00
2022-11-14T17:41:07.488Z,100.00
2022-11-14T17:43:39.157Z,100.00
2022-11-14T17:46:12.577Z,100.00
2022-11-14T17:48:42.582Z,100.00
2022-11-14T17:51:12.406Z,100.00
2022-11-14T17:53:39.554Z,100.00
2022-11-14T17:56:07.904Z,100.00
2022-11-14T17:58:35.175Z,100.00
2022-11-14T18:01:08.603Z,100.00
2022-11-14T18:03:35.763Z,100.00
2022-11-14T18:06:10.826Z,100.00
2022-11-14T18:08:37.934Z,100.00
2022-11-14T18:11:07.396Z,100.00
2022-11-14T18:13:34.486Z,100.00
2022-11-14T18:16:07.093Z,100.00
2022-11-14T18:18:35.880Z,100.00
2022-11-14T18:21:23.981Z,100.00
2022-11-14T18:23:53.733Z,100.00
2022-11-14T18:26:26.992Z,100.00
2022-11-14T18:29:01.882Z,100.00
2022-11-14T18:31:28.755Z,100.00
2022-11-14T18:33:56.537Z,100.00
2022-11-14T18:36:23.796Z,100.00
2022-11-14T18:38:50.836Z,100.00
2022-11-14T18:41:19.055Z,100.00
2022-11-14T18:43:45.945Z,100.00
2022-11-14T18:46:15.827Z,100.00
2022-11-14T18:48:45.417Z,100.00
2022-11-14T18:51:17.701Z,100.00
2022-11-14T18:53:44.823Z,100.00
2022-11-14T18:56:16.852Z,100.00
2022-11-14T18:58:44.461Z,100.00
2022-11-14T19:01:30.077Z,100.00
2022-11-14T19:04:08.183Z,100.00
2022-11-14T19:06:37.405Z,100.00
2022-11-14T19:09:16.611Z,100.00
2022-11-14T19:12:01.759Z,100.00
2022-11-14T19:14:28.383Z,100.00
2022-11-14T19:16:55.185Z,100.00
2022-11-14T19:19:22.110Z,100.00
2022-11-14T19:21:52.656Z,100.00
2022-11-14T19:24:19.276Z,100.00
2022-11-14T19:26:45.968Z,100.00
2022-11-14T19:29:15.587Z,100.00
2022-11-14T19:31:42.984Z,100.00
2022-11-14T19:34:10.260Z,100.00
2022-11-14T19:36:58.737Z,100.00
2022-11-14T19:39:24.205Z,100.00
2022-11-14T19:41:51.240Z,100.00
2022-11-14T19:44:17.959Z,100.00
2022-11-14T19:46:47.754Z,100.00
2022-11-14T19:49:14.540Z,100.00
2022-11-14T19:51:41.173Z,100.00
2022-11-14T19:54:10.428Z,100.00
2022-11-14T19:56:37.266Z,100.00
2022-11-14T19:59:09.593Z,100.00
2022-11-14T20:01:42.209Z,100.00
2022-11-14T20:04:12.191Z,100.00
2022-11-14T20:06:39.182Z,100.00
2022-11-14T20:09:08.882Z,100.00
2022-11-14T20:11:36.067Z,100.00
2022-11-14T20:14:03.268Z,100.00
2022-11-14T20:16:32.473Z,100.00
2022-11-14T20:19:00.768Z,100.00
2022-11-14T20:21:30.256Z,100.00
2022-11-14T20:23:57.092Z,100.00
2022-11-14T20:26:24.288Z,100.00
2022-11-14T20:28:54.041Z,100.00
2022-11-14T20:31:27.383Z,100.00
2022-11-14T20:33:55.144Z,100.00
2022-11-14T20:36:32.052Z,100.00
2022-11-14T20:39:02.085Z,100.00
2022-11-14T20:41:28.790Z,100.00
2022-11-14T20:43:55.420Z,100.00
2022-11-14T20:46:22.198Z,100.00
2022-11-14T20:48:49.117Z,100.00
2022-11-14T20:51:19.342Z,100.00
2022-11-14T20:53:46.482Z,100.00
2022-11-14T20:56:14.373Z,100.00
2022-11-14T20:58:42.236Z,100.00
2022-11-14T21:01:10.350Z,100.00
2022-11-14T21:03:38.637Z,100.00
2022-11-14T21:06:07.057Z,100.00
2022-11-14T21:08:35.915Z,100.00
2022-11-14T21:11:05.316Z,100.00
2022-11-14T21:13:53.577Z,100.00
2022-11-14T21:16:20.499Z,100.00
2022-11-14T21:18:48.376Z,100.00
2022-11-14T21:21:19.281Z,100.00
2022-11-14T21:23:47.370Z,100.00
2022-11-14T21:26:18.614Z,100.00
2022-11-14T21:28:48.557Z,100.00
2022-11-14T21:31:23.087Z,100.00
2022-11-14T21:33:52.018Z,100.00
2022-11-14T21:39:06.794Z,100.00
2022-11-14T21:41:33.511Z,100.00
2022-11-14T21:44:02.207Z,100.00
2022-11-14T21:46:29.484Z,100.00
2022-11-14T21:48:57.073Z,100.00
2022-11-14T21:51:26.585Z,100.00
2022-11-14T21:53:55.654Z,100.00
2022-11-14T21:56:27.762Z,100.00
2022-11-14T21:59:13.082Z,100.00
2022-11-14T22:01:59.999Z,100.00
2022-11-14T22:04:27.601Z,100.00
2022-11-14T22:06:54.669Z,100.00
2022-11-14T22:09:21.635Z,100.00
2022-11-14T22:11:48.223Z,100.00
2022-11-14T22:14:15.281Z,100.00
2022-11-14T22:16:41.922Z,100.00
2022-11-14T22:19:08.730Z,100.00
2022-11-14T22:21:35.304Z,100.00
2022-11-14T22:24:01.929Z,100.00
2022-11-14T22:26:28.903Z,100.00
2022-11-14T22:28:55.478Z,100.00
2022-11-14T22:31:23.983Z,100.00
2022-11-14T22:33:53.093Z,100.00
2022-11-14T22:36:25.107Z,100.00
2022-11-14T22:38:54.353Z,100.00
2022-11-14T22:41:27.761Z,100.00
2022-11-14T22:43:58.973Z,100.00
2022-11-14T22:46:27.357Z,100.00
2022-11-14T22:48:54.817Z,100.00
2022-11-14T22:51:23.397Z,100.00
2022-11-14T22:53:52.358Z,100.00
2022-11-14T22:56:21.703Z,100.00
2022-11-14T22:58:48.635Z,100.00
2022-11-14T23:01:22.182Z,100.00
2022-11-14T23:03:57.757Z,100.00
2022-11-14T23:06:25.158Z,100.00
2022-11-14T23:08:52.264Z,100.00
2022-11-14T23:11:22.669Z,100.00
2022-11-14T23:13:52.212Z,100.00
2022-11-14T23:16:21.536Z,100.00
2022-11-14T23:18:49.292Z,100.00
2022-11-14T23:21:19.482Z,100.00
2022-11-14T23:23:46.323Z,100.00
2022-11-14T23:26:15.605Z,100.00
2022-11-14T23:28:42.742Z,100.00
2022-11-14T23:31:10.697Z,100.00
2022-11-14T23:33:37.337Z,100.00
2022-11-14T23:36:04.660Z,100.00
2022-11-14T23:38:31.388Z,100.00
2022-11-14T23:41:00.438Z,100.00
2022-11-14T23:43:28.206Z,100.00
2022-11-14T23:45:55.353Z,100.00
2022-11-14T23:48:23.079Z,100.00
2022-11-14T23:50:55.156Z,100.00
2022-11-14T23:53:22.525Z,100.00
2022-11-14T23:55:57.117Z,100.00
2022-11-14T23:58:25.267Z,100.00
